sensor_id;sensor_type;location;lat;lon;timestamp;P1;durP1;ratioP1;P2;durP2;ratioP2
39738;SDS011;25422;48.286;8.484;2022-08-19T00:01:35;58.72;;;40.63;;
39738;SDS011;25422;48.286;8.484;2022-08-19T00:04:03;63.38;;;44.28;;
39738;SDS011;25422;48.286;8.484;2022-08-19T00:06:30;57.90;;;41.78;;
39738;SDS011;25422;48.286;8.484;2022-08-19T00:08:56;58.85;;;41.38;;
39738;SDS011;25422;48.286;8.484;2022-08-19T00:11:25;60.78;;;42.88;;
39738;SDS011;25422;48.286;8.484;2022-08-19T00:13:53;64.38;;;42.83;;
39738;SDS011;25422;48.286;8.484;2022-08-19T00:16:21;63.22;;;43.97;;
39738;SDS011;25422;48.286;8.484;2022-08-19T00:18:48;64.25;;;43.13;;
39738;SDS011;25422;48.286;8.484;2022-08-19T00:21:14;64.82;;;42.97;;
39738;SDS011;25422;48.286;8.484;2022-08-19T00:23:40;64.93;;;42.33;;
39738;SDS011;25422;48.286;8.484;2022-08-19T00:26:08;66.15;;;44.63;;
39738;SDS011;25422;48.286;8.484;2022-08-19T00:28:34;70.40;;;44.42;;
39738;SDS011;25422;48.286;8.484;2022-08-19T00:31:01;67.97;;;43.97;;
39738;SDS011;25422;48.286;8.484;2022-08-19T00:33:30;67.47;;;44.37;;
39738;SDS011;25422;48.286;8.484;2022-08-19T00:35:59;66.43;;;42.83;;
39738;SDS011;25422;48.286;8.484;2022-08-19T00:38:26;64.30;;;42.65;;
39738;SDS011;25422;48.286;8.484;2022-08-19T00:40:52;63.53;;;41.92;;
39738;SDS011;25422;48.286;8.484;2022-08-19T00:43:21;68.07;;;43.65;;
39738;SDS011;25422;48.286;8.484;2022-08-19T00:45:48;60.10;;;41.92;;
39738;SDS011;25422;48.286;8.484;2022-08-19T00:48:15;60.95;;;42.22;;
39738;SDS011;25422;48.286;8.484;2022-08-19T00:50:41;62.10;;;42.67;;
39738;SDS011;25422;48.286;8.484;2022-08-19T00:53:09;63.08;;;41.97;;
39738;SDS011;25422;48.286;8.484;2022-08-19T00:55:37;63.10;;;42.85;;
39738;SDS011;25422;48.286;8.484;2022-08-19T00:58:05;62.20;;;41.72;;
39738;SDS011;25422;48.286;8.484;2022-08-19T01:00:35;62.42;;;42.03;;
39738;SDS011;25422;48.286;8.484;2022-08-19T01:03:06;63.63;;;43.20;;
39738;SDS011;25422;48.286;8.484;2022-08-19T01:05:33;67.47;;;43.88;;
39738;SDS011;25422;48.286;8.484;2022-08-19T01:08:00;65.20;;;43.72;;
39738;SDS011;25422;48.286;8.484;2022-08-19T01:10:29;60.67;;;41.65;;
39738;SDS011;25422;48.286;8.484;2022-08-19T01:12:58;62.28;;;42.67;;
39738;SDS011;25422;48.286;8.484;2022-08-19T01:15:29;60.25;;;41.47;;
39738;SDS011;25422;48.286;8.484;2022-08-19T01:17:59;64.18;;;43.03;;
39738;SDS011;25422;48.286;8.484;2022-08-19T01:20:29;64.63;;;42.28;;
39738;SDS011;25422;48.286;8.484;2022-08-19T01:22:56;63.63;;;43.08;;
39738;SDS011;25422;48.286;8.484;2022-08-19T01:25:28;62.83;;;43.22;;
39738;SDS011;25422;48.286;8.484;2022-08-19T01:27:56;61.92;;;41.70;;
39738;SDS011;25422;48.286;8.484;2022-08-19T01:30:24;61.50;;;40.17;;
39738;SDS011;25422;48.286;8.484;2022-08-19T01:35:19;64.80;;;40.60;;
39738;SDS011;25422;48.286;8.484;2022-08-19T01:37:53;62.45;;;42.13;;
39738;SDS011;25422;48.286;8.484;2022-08-19T01:40:23;63.35;;;42.50;;
39738;SDS011;25422;48.286;8.484;2022-08-19T01:42:51;66.22;;;40.90;;
39738;SDS011;25422;48.286;8.484;2022-08-19T01:45:18;64.55;;;42.30;;
39738;SDS011;25422;48.286;8.484;2022-08-19T01:47:45;69.55;;;42.88;;
39738;SDS011;25422;48.286;8.484;2022-08-19T01:50:11;68.45;;;42.83;;
39738;SDS011;25422;48.286;8.484;2022-08-19T01:52:37;73.03;;;44.38;;
39738;SDS011;25422;48.286;8.484;2022-08-19T01:55:05;66.00;;;42.22;;
39738;SDS011;25422;48.286;8.484;2022-08-19T01:57:33;69.97;;;42.72;;
39738;SDS011;25422;48.286;8.484;2022-08-19T01:59:59;68.40;;;44.03;;
39738;SDS011;25422;48.286;8.484;2022-08-19T02:02:25;69.50;;;43.45;;
39738;SDS011;25422;48.286;8.484;2022-08-19T02:04:50;69.78;;;42.47;;
39738;SDS011;25422;48.286;8.484;2022-08-19T02:07:18;65.25;;;42.30;;
39738;SDS011;25422;48.286;8.484;2022-08-19T02:09:45;67.68;;;43.63;;
39738;SDS011;25422;48.286;8.484;2022-08-19T02:12:10;72.70;;;43.58;;
39738;SDS011;25422;48.286;8.484;2022-08-19T02:14:36;71.10;;;44.72;;
39738;SDS011;25422;48.286;8.484;2022-08-19T02:17:02;71.05;;;44.42;;
39738;SDS011;25422;48.286;8.484;2022-08-19T02:19:28;74.40;;;45.22;;
39738;SDS011;25422;48.286;8.484;2022-08-19T02:21:53;74.25;;;46.15;;
39738;SDS011;25422;48.286;8.484;2022-08-19T02:24:19;77.75;;;46.00;;
39738;SDS011;25422;48.286;8.484;2022-08-19T02:26:44;70.93;;;43.45;;
39738;SDS011;25422;48.286;8.484;2022-08-19T02:29:10;72.80;;;43.88;;
39738;SDS011;25422;48.286;8.484;2022-08-19T02:31:35;75.63;;;45.95;;
39738;SDS011;25422;48.286;8.484;2022-08-19T02:34:01;77.72;;;46.92;;
39738;SDS011;25422;48.286;8.484;2022-08-19T02:36:26;75.40;;;45.03;;
39738;SDS011;25422;48.286;8.484;2022-08-19T02:38:53;75.32;;;45.65;;
39738;SDS011;25422;48.286;8.484;2022-08-19T02:41:21;74.97;;;47.05;;
39738;SDS011;25422;48.286;8.484;2022-08-19T02:43:51;78.00;;;47.53;;
39738;SDS011;25422;48.286;8.484;2022-08-19T02:48:52;80.28;;;47.55;;
39738;SDS011;25422;48.286;8.484;2022-08-19T02:51:21;82.35;;;47.85;;
39738;SDS011;25422;48.286;8.484;2022-08-19T02:56:15;76.10;;;45.67;;
39738;SDS011;25422;48.286;8.484;2022-08-19T02:58:40;73.57;;;46.80;;
39738;SDS011;25422;48.286;8.484;2022-08-19T03:01:06;79.78;;;46.45;;
39738;SDS011;25422;48.286;8.484;2022-08-19T03:03:32;73.43;;;45.05;;
39738;SDS011;25422;48.286;8.484;2022-08-19T03:06:08;77.88;;;45.70;;
39738;SDS011;25422;48.286;8.484;2022-08-19T03:11:03;78.35;;;47.70;;
39738;SDS011;25422;48.286;8.484;2022-08-19T03:13:29;78.57;;;48.15;;
39738;SDS011;25422;48.286;8.484;2022-08-19T03:15:55;81.18;;;49.05;;
39738;SDS011;25422;48.286;8.484;2022-08-19T03:18:20;82.38;;;48.33;;
39738;SDS011;25422;48.286;8.484;2022-08-19T03:20:50;80.93;;;48.35;;
39738;SDS011;25422;48.286;8.484;2022-08-19T03:23:21;85.00;;;48.90;;
39738;SDS011;25422;48.286;8.484;2022-08-19T03:25:48;81.97;;;49.42;;
39738;SDS011;25422;48.286;8.484;2022-08-19T03:28:17;86.05;;;50.03;;
39738;SDS011;25422;48.286;8.484;2022-08-19T03:30:43;85.60;;;51.17;;
39738;SDS011;25422;48.286;8.484;2022-08-19T03:33:21;85.40;;;50.53;;
39738;SDS011;25422;48.286;8.484;2022-08-19T03:35:46;84.47;;;49.50;;
39738;SDS011;25422;48.286;8.484;2022-08-19T03:38:12;83.40;;;49.47;;
39738;SDS011;25422;48.286;8.484;2022-08-19T03:40:37;81.93;;;50.03;;
39738;SDS011;25422;48.286;8.484;2022-08-19T03:43:02;78.80;;;48.35;;
39738;SDS011;25422;48.286;8.484;2022-08-19T03:45:28;78.88;;;47.83;;
39738;SDS011;25422;48.286;8.484;2022-08-19T03:47:53;83.00;;;50.00;;
39738;SDS011;25422;48.286;8.484;2022-08-19T03:50:20;76.32;;;48.13;;
39738;SDS011;25422;48.286;8.484;2022-08-19T03:52:51;80.22;;;48.83;;
39738;SDS011;25422;48.286;8.484;2022-08-19T03:55:17;81.07;;;47.22;;
39738;SDS011;25422;48.286;8.484;2022-08-19T03:57:43;77.55;;;47.58;;
39738;SDS011;25422;48.286;8.484;2022-08-19T04:00:10;77.57;;;47.83;;
39738;SDS011;25422;48.286;8.484;2022-08-19T04:02:36;75.53;;;47.63;;
39738;SDS011;25422;48.286;8.484;2022-08-19T04:05:02;75.78;;;46.30;;
39738;SDS011;25422;48.286;8.484;2022-08-19T04:07:27;78.93;;;47.20;;
39738;SDS011;25422;48.286;8.484;2022-08-19T04:09:53;81.07;;;49.00;;
39738;SDS011;25422;48.286;8.484;2022-08-19T04:12:18;76.22;;;48.13;;
39738;SDS011;25422;48.286;8.484;2022-08-19T04:14:45;78.68;;;47.38;;
39738;SDS011;25422;48.286;8.484;2022-08-19T04:17:11;74.97;;;47.42;;
39738;SDS011;25422;48.286;8.484;2022-08-19T04:19:39;76.72;;;47.85;;
39738;SDS011;25422;48.286;8.484;2022-08-19T04:22:05;78.85;;;47.35;;
39738;SDS011;25422;48.286;8.484;2022-08-19T04:24:31;83.28;;;48.17;;
39738;SDS011;25422;48.286;8.484;2022-08-19T04:26:59;79.50;;;47.72;;
39738;SDS011;25422;48.286;8.484;2022-08-19T04:29:25;78.03;;;47.47;;
39738;SDS011;25422;48.286;8.484;2022-08-19T04:31:53;78.70;;;47.42;;
39738;SDS011;25422;48.286;8.484;2022-08-19T04:34:21;70.93;;;47.00;;
39738;SDS011;25422;48.286;8.484;2022-08-19T04:36:49;74.70;;;47.38;;
39738;SDS011;25422;48.286;8.484;2022-08-19T04:39:17;78.32;;;48.05;;
39738;SDS011;25422;48.286;8.484;2022-08-19T04:41:44;78.82;;;47.15;;
39738;SDS011;25422;48.286;8.484;2022-08-19T04:44:30;75.47;;;46.20;;
39738;SDS011;25422;48.286;8.484;2022-08-19T04:47:00;79.65;;;47.17;;
39738;SDS011;25422;48.286;8.484;2022-08-19T04:49:28;78.38;;;48.30;;
39738;SDS011;25422;48.286;8.484;2022-08-19T04:51:55;77.78;;;47.33;;
39738;SDS011;25422;48.286;8.484;2022-08-19T04:54:21;85.93;;;49.63;;
39738;SDS011;25422;48.286;8.484;2022-08-19T04:56:49;78.60;;;47.00;;
39738;SDS011;25422;48.286;8.484;2022-08-19T04:59:15;83.10;;;48.75;;
39738;SDS011;25422;48.286;8.484;2022-08-19T05:01:42;73.43;;;44.80;;
39738;SDS011;25422;48.286;8.484;2022-08-19T05:04:08;85.03;;;48.83;;
39738;SDS011;25422;48.286;8.484;2022-08-19T05:06:34;73.75;;;46.58;;
39738;SDS011;25422;48.286;8.484;2022-08-19T05:09:01;81.15;;;48.13;;
39738;SDS011;25422;48.286;8.484;2022-08-19T05:11:32;81.97;;;47.03;;
39738;SDS011;25422;48.286;8.484;2022-08-19T05:13:59;81.10;;;47.38;;
39738;SDS011;25422;48.286;8.484;2022-08-19T05:16:26;78.75;;;46.50;;
39738;SDS011;25422;48.286;8.484;2022-08-19T05:18:52;79.28;;;47.08;;
39738;SDS011;25422;48.286;8.484;2022-08-19T05:21:37;80.57;;;46.83;;
39738;SDS011;25422;48.286;8.484;2022-08-19T05:24:23;77.45;;;46.05;;
39738;SDS011;25422;48.286;8.484;2022-08-19T05:26:49;78.13;;;45.97;;
39738;SDS011;25422;48.286;8.484;2022-08-19T05:29:18;79.35;;;44.90;;
39738;SDS011;25422;48.286;8.484;2022-08-19T05:31:45;73.43;;;43.92;;
39738;SDS011;25422;48.286;8.484;2022-08-19T05:34:12;76.63;;;44.95;;
39738;SDS011;25422;48.286;8.484;2022-08-19T05:36:40;82.63;;;46.38;;
39738;SDS011;25422;48.286;8.484;2022-08-19T05:39:08;75.00;;;46.22;;
39738;SDS011;25422;48.286;8.484;2022-08-19T05:41:40;75.68;;;46.00;;
39738;SDS011;25422;48.286;8.484;2022-08-19T05:44:17;80.05;;;46.47;;
39738;SDS011;25422;48.286;8.484;2022-08-19T05:46:45;79.43;;;46.88;;
39738;SDS011;25422;48.286;8.484;2022-08-19T05:49:15;80.82;;;46.90;;
39738;SDS011;25422;48.286;8.484;2022-08-19T05:51:41;77.88;;;46.45;;
39738;SDS011;25422;48.286;8.484;2022-08-19T05:54:08;82.55;;;47.50;;
39738;SDS011;25422;48.286;8.484;2022-08-19T05:56:34;79.82;;;47.65;;
39738;SDS011;25422;48.286;8.484;2022-08-19T05:59:03;85.40;;;47.65;;
39738;SDS011;25422;48.286;8.484;2022-08-19T06:01:33;81.78;;;46.97;;
39738;SDS011;25422;48.286;8.484;2022-08-19T06:03:59;81.95;;;47.38;;
39738;SDS011;25422;48.286;8.484;2022-08-19T06:06:25;80.95;;;48.03;;
39738;SDS011;25422;48.286;8.484;2022-08-19T06:08:50;86.95;;;46.63;;
39738;SDS011;25422;48.286;8.484;2022-08-19T06:11:17;75.53;;;45.97;;
39738;SDS011;25422;48.286;8.484;2022-08-19T06:13:50;78.35;;;47.30;;
39738;SDS011;25422;48.286;8.484;2022-08-19T06:16:19;74.35;;;44.75;;
39738;SDS011;25422;48.286;8.484;2022-08-19T06:18:51;74.80;;;46.40;;
39738;SDS011;25422;48.286;8.484;2022-08-19T06:21:20;68.53;;;43.25;;
39738;SDS011;25422;48.286;8.484;2022-08-19T06:23:47;74.45;;;45.70;;
39738;SDS011;25422;48.286;8.484;2022-08-19T06:26:14;76.72;;;44.88;;
39738;SDS011;25422;48.286;8.484;2022-08-19T06:28:40;75.93;;;45.25;;
39738;SDS011;25422;48.286;8.484;2022-08-19T06:31:12;76.45;;;44.17;;
39738;SDS011;25422;48.286;8.484;2022-08-19T06:33:40;68.40;;;43.65;;
39738;SDS011;25422;48.286;8.484;2022-08-19T06:36:06;73.95;;;44.97;;
39738;SDS011;25422;48.286;8.484;2022-08-19T06:38:32;73.20;;;43.75;;
39738;SDS011;25422;48.286;8.484;2022-08-19T06:41:02;72.95;;;43.65;;
39738;SDS011;25422;48.286;8.484;2022-08-19T06:43:29;75.28;;;46.33;;
39738;SDS011;25422;48.286;8.484;2022-08-19T06:45:54;71.05;;;43.72;;
39738;SDS011;25422;48.286;8.484;2022-08-19T06:48:20;75.30;;;45.58;;
39738;SDS011;25422;48.286;8.484;2022-08-19T06:50:46;72.70;;;43.78;;
39738;SDS011;25422;48.286;8.484;2022-08-19T06:53:12;67.50;;;42.53;;
39738;SDS011;25422;48.286;8.484;2022-08-19T06:55:37;64.65;;;42.33;;
39738;SDS011;25422;48.286;8.484;2022-08-19T06:58:04;69.18;;;44.33;;
39738;SDS011;25422;48.286;8.484;2022-08-19T07:00:30;72.00;;;46.38;;
39738;SDS011;25422;48.286;8.484;2022-08-19T07:02:57;64.53;;;42.25;;
39738;SDS011;25422;48.286;8.484;2022-08-19T07:05:23;62.22;;;41.85;;
39738;SDS011;25422;48.286;8.484;2022-08-19T07:07:49;63.55;;;42.78;;
39738;SDS011;25422;48.286;8.484;2022-08-19T07:10:14;63.92;;;43.40;;
39738;SDS011;25422;48.286;8.484;2022-08-19T07:12:40;68.35;;;43.08;;
39738;SDS011;25422;48.286;8.484;2022-08-19T07:15:06;69.50;;;43.60;;
39738;SDS011;25422;48.286;8.484;2022-08-19T07:17:33;67.25;;;43.63;;
39738;SDS011;25422;48.286;8.484;2022-08-19T07:20:02;62.20;;;42.40;;
39738;SDS011;25422;48.286;8.484;2022-08-19T07:22:28;67.13;;;44.65;;
39738;SDS011;25422;48.286;8.484;2022-08-19T07:24:54;61.72;;;42.15;;
39738;SDS011;25422;48.286;8.484;2022-08-19T07:27:19;60.15;;;41.15;;
39738;SDS011;25422;48.286;8.484;2022-08-19T07:29:45;59.65;;;41.40;;
39738;SDS011;25422;48.286;8.484;2022-08-19T07:32:10;60.30;;;40.78;;
39738;SDS011;25422;48.286;8.484;2022-08-19T07:34:36;57.53;;;39.10;;
39738;SDS011;25422;48.286;8.484;2022-08-19T07:37:03;55.22;;;38.08;;
39738;SDS011;25422;48.286;8.484;2022-08-19T07:39:31;55.35;;;39.38;;
39738;SDS011;25422;48.286;8.484;2022-08-19T07:41:59;53.80;;;39.47;;
39738;SDS011;25422;48.286;8.484;2022-08-19T07:44:25;55.38;;;40.08;;
39738;SDS011;25422;48.286;8.484;2022-08-19T07:46:53;55.97;;;38.95;;
39738;SDS011;25422;48.286;8.484;2022-08-19T07:49:21;54.67;;;40.75;;
39738;SDS011;25422;48.286;8.484;2022-08-19T07:51:48;53.40;;;38.70;;
39738;SDS011;25422;48.286;8.484;2022-08-19T07:54:19;56.15;;;39.15;;
39738;SDS011;25422;48.286;8.484;2022-08-19T07:56:45;52.70;;;39.17;;
39738;SDS011;25422;48.286;8.484;2022-08-19T07:59:11;49.72;;;37.00;;
39738;SDS011;25422;48.286;8.484;2022-08-19T08:01:37;50.90;;;36.53;;
39738;SDS011;25422;48.286;8.484;2022-08-19T08:04:05;48.33;;;36.75;;
39738;SDS011;25422;48.286;8.484;2022-08-19T08:06:51;51.40;;;37.50;;
39738;SDS011;25422;48.286;8.484;2022-08-19T08:09:38;49.97;;;36.60;;
39738;SDS011;25422;48.286;8.484;2022-08-19T08:12:07;48.33;;;36.88;;
39738;SDS011;25422;48.286;8.484;2022-08-19T08:17:04;50.15;;;36.33;;
39738;SDS011;25422;48.286;8.484;2022-08-19T08:19:30;45.22;;;35.92;;
39738;SDS011;25422;48.286;8.484;2022-08-19T08:21:56;46.72;;;36.40;;
39738;SDS011;25422;48.286;8.484;2022-08-19T08:24:24;44.47;;;34.95;;
39738;SDS011;25422;48.286;8.484;2022-08-19T08:26:50;46.35;;;35.67;;
39738;SDS011;25422;48.286;8.484;2022-08-19T08:29:16;44.03;;;34.63;;
39738;SDS011;25422;48.286;8.484;2022-08-19T08:31:42;46.47;;;34.33;;
39738;SDS011;25422;48.286;8.484;2022-08-19T08:34:09;49.13;;;35.35;;
39738;SDS011;25422;48.286;8.484;2022-08-19T08:36:36;47.38;;;35.10;;
39738;SDS011;25422;48.286;8.484;2022-08-19T08:39:10;45.00;;;34.45;;
39738;SDS011;25422;48.286;8.484;2022-08-19T08:41:52;41.97;;;33.40;;
39738;SDS011;25422;48.286;8.484;2022-08-19T08:44:23;39.97;;;32.15;;
39738;SDS011;25422;48.286;8.484;2022-08-19T08:47:00;41.53;;;32.42;;
39738;SDS011;25422;48.286;8.484;2022-08-19T08:52:15;38.58;;;31.85;;
39738;SDS011;25422;48.286;8.484;2022-08-19T08:54:48;38.83;;;31.27;;
39738;SDS011;25422;48.286;8.484;2022-08-19T08:57:27;44.80;;;34.00;;
39738;SDS011;25422;48.286;8.484;2022-08-19T08:59:58;39.05;;;30.20;;
39738;SDS011;25422;48.286;8.484;2022-08-19T09:02:28;41.28;;;32.30;;
39738;SDS011;25422;48.286;8.484;2022-08-19T09:04:54;46.40;;;33.15;;
39738;SDS011;25422;48.286;8.484;2022-08-19T09:10:16;43.42;;;33.05;;
39738;SDS011;25422;48.286;8.484;2022-08-19T09:15:34;39.95;;;32.95;;
39738;SDS011;25422;48.286;8.484;2022-08-19T09:18:04;43.15;;;33.53;;
39738;SDS011;25422;48.286;8.484;2022-08-19T09:20:31;42.42;;;34.35;;
39738;SDS011;25422;48.286;8.484;2022-08-19T09:22:57;44.90;;;34.83;;
39738;SDS011;25422;48.286;8.484;2022-08-19T09:25:23;46.20;;;35.47;;
39738;SDS011;25422;48.286;8.484;2022-08-19T09:27:50;44.80;;;35.28;;
39738;SDS011;25422;48.286;8.484;2022-08-19T09:30:25;42.88;;;35.35;;
39738;SDS011;25422;48.286;8.484;2022-08-19T09:32:52;45.05;;;36.38;;
39738;SDS011;25422;48.286;8.484;2022-08-19T09:35:20;43.10;;;35.33;;
39738;SDS011;25422;48.286;8.484;2022-08-19T09:37:47;45.50;;;35.20;;
39738;SDS011;25422;48.286;8.484;2022-08-19T09:40:14;46.20;;;35.65;;
39738;SDS011;25422;48.286;8.484;2022-08-19T09:42:40;45.20;;;36.97;;
39738;SDS011;25422;48.286;8.484;2022-08-19T09:45:08;44.92;;;36.40;;
39738;SDS011;25422;48.286;8.484;2022-08-19T09:47:35;44.85;;;36.60;;
39738;SDS011;25422;48.286;8.484;2022-08-19T09:50:03;48.20;;;37.40;;
39738;SDS011;25422;48.286;8.484;2022-08-19T09:52:30;46.50;;;38.20;;
39738;SDS011;25422;48.286;8.484;2022-08-19T09:54:56;52.78;;;39.20;;
39738;SDS011;25422;48.286;8.484;2022-08-19T09:57:21;47.25;;;38.20;;
39738;SDS011;25422;48.286;8.484;2022-08-19T09:59:47;48.67;;;38.55;;
39738;SDS011;25422;48.286;8.484;2022-08-19T10:02:13;44.38;;;37.15;;
39738;SDS011;25422;48.286;8.484;2022-08-19T10:04:38;49.28;;;38.58;;
39738;SDS011;25422;48.286;8.484;2022-08-19T10:07:22;47.65;;;37.38;;
39738;SDS011;25422;48.286;8.484;2022-08-19T10:09:48;53.63;;;39.47;;
39738;SDS011;25422;48.286;8.484;2022-08-19T10:12:13;48.70;;;39.03;;
39738;SDS011;25422;48.286;8.484;2022-08-19T10:14:40;47.70;;;37.30;;
39738;SDS011;25422;48.286;8.484;2022-08-19T10:17:06;46.13;;;38.10;;
39738;SDS011;25422;48.286;8.484;2022-08-19T10:19:31;43.00;;;36.83;;
39738;SDS011;25422;48.286;8.484;2022-08-19T10:22:04;43.95;;;35.95;;
39738;SDS011;25422;48.286;8.484;2022-08-19T10:24:31;44.75;;;36.85;;
39738;SDS011;25422;48.286;8.484;2022-08-19T10:26:56;39.97;;;34.67;;
39738;SDS011;25422;48.286;8.484;2022-08-19T10:29:22;39.35;;;34.65;;
39738;SDS011;25422;48.286;8.484;2022-08-19T10:31:48;39.85;;;33.78;;
39738;SDS011;25422;48.286;8.484;2022-08-19T10:34:13;39.35;;;31.65;;
39738;SDS011;25422;48.286;8.484;2022-08-19T10:36:38;36.10;;;30.63;;
39738;SDS011;25422;48.286;8.484;2022-08-19T10:39:07;35.22;;;30.52;;
39738;SDS011;25422;48.286;8.484;2022-08-19T10:41:35;38.53;;;31.27;;
39738;SDS011;25422;48.286;8.484;2022-08-19T10:44:04;34.80;;;29.58;;
39738;SDS011;25422;48.286;8.484;2022-08-19T10:46:32;32.38;;;28.45;;
39738;SDS011;25422;48.286;8.484;2022-08-19T10:48:59;31.27;;;27.90;;
39738;SDS011;25422;48.286;8.484;2022-08-19T10:51:26;30.13;;;26.92;;
39738;SDS011;25422;48.286;8.484;2022-08-19T10:54:11;30.35;;;26.02;;
39738;SDS011;25422;48.286;8.484;2022-08-19T10:56:36;30.70;;;25.83;;
39738;SDS011;25422;48.286;8.484;2022-08-19T10:59:18;29.90;;;25.95;;
39738;SDS011;25422;48.286;8.484;2022-08-19T11:01:49;30.45;;;25.75;;
39738;SDS011;25422;48.286;8.484;2022-08-19T11:04:16;30.65;;;26.05;;
39738;SDS011;25422;48.286;8.484;2022-08-19T11:06:46;28.77;;;25.73;;
39738;SDS011;25422;48.286;8.484;2022-08-19T11:09:17;31.15;;;25.52;;
39738;SDS011;25422;48.286;8.484;2022-08-19T11:11:45;28.05;;;25.15;;
39738;SDS011;25422;48.286;8.484;2022-08-19T11:14:13;28.23;;;25.25;;
39738;SDS011;25422;48.286;8.484;2022-08-19T11:16:40;30.75;;;26.20;;
39738;SDS011;25422;48.286;8.484;2022-08-19T11:19:08;30.38;;;27.05;;
39738;SDS011;25422;48.286;8.484;2022-08-19T11:21:37;30.03;;;27.03;;
39738;SDS011;25422;48.286;8.484;2022-08-19T11:24:06;29.90;;;26.67;;
39738;SDS011;25422;48.286;8.484;2022-08-19T11:26:33;29.25;;;26.25;;
39738;SDS011;25422;48.286;8.484;2022-08-19T11:29:00;33.05;;;26.77;;
39738;SDS011;25422;48.286;8.484;2022-08-19T11:31:28;31.95;;;28.52;;
39738;SDS011;25422;48.286;8.484;2022-08-19T11:33:58;30.13;;;27.02;;
39738;SDS011;25422;48.286;8.484;2022-08-19T11:36:26;29.17;;;25.75;;
39738;SDS011;25422;48.286;8.484;2022-08-19T11:38:52;30.67;;;25.60;;
39738;SDS011;25422;48.286;8.484;2022-08-19T11:41:19;29.10;;;24.13;;
39738;SDS011;25422;48.286;8.484;2022-08-19T11:43:47;27.92;;;24.90;;
39738;SDS011;25422;48.286;8.484;2022-08-19T11:46:14;29.17;;;26.10;;
39738;SDS011;25422;48.286;8.484;2022-08-19T11:48:40;32.35;;;28.20;;
39738;SDS011;25422;48.286;8.484;2022-08-19T11:51:07;32.92;;;28.33;;
39738;SDS011;25422;48.286;8.484;2022-08-19T11:53:36;31.05;;;27.75;;
39738;SDS011;25422;48.286;8.484;2022-08-19T11:56:02;35.28;;;27.55;;
39738;SDS011;25422;48.286;8.484;2022-08-19T11:58:28;31.92;;;27.85;;
39738;SDS011;25422;48.286;8.484;2022-08-19T12:00:54;30.50;;;27.13;;
39738;SDS011;25422;48.286;8.484;2022-08-19T12:03:20;31.42;;;28.17;;
39738;SDS011;25422;48.286;8.484;2022-08-19T12:05:45;35.95;;;30.73;;
39738;SDS011;25422;48.286;8.484;2022-08-19T12:08:11;29.20;;;26.23;;
39738;SDS011;25422;48.286;8.484;2022-08-19T12:10:38;28.02;;;25.17;;
39738;SDS011;25422;48.286;8.484;2022-08-19T12:13:04;29.67;;;25.80;;
39738;SDS011;25422;48.286;8.484;2022-08-19T12:15:35;29.27;;;26.10;;
39738;SDS011;25422;48.286;8.484;2022-08-19T12:18:01;27.58;;;24.77;;
39738;SDS011;25422;48.286;8.484;2022-08-19T12:20:28;28.17;;;25.38;;
39738;SDS011;25422;48.286;8.484;2022-08-19T12:22:53;27.83;;;24.38;;
39738;SDS011;25422;48.286;8.484;2022-08-19T12:25:19;27.30;;;24.55;;
39738;SDS011;25422;48.286;8.484;2022-08-19T12:27:45;29.42;;;26.13;;
39738;SDS011;25422;48.286;8.484;2022-08-19T12:30:11;31.48;;;25.77;;
39738;SDS011;25422;48.286;8.484;2022-08-19T12:32:38;31.42;;;26.08;;
39738;SDS011;25422;48.286;8.484;2022-08-19T12:35:04;27.40;;;24.48;;
39738;SDS011;25422;48.286;8.484;2022-08-19T12:37:31;27.75;;;24.77;;
39738;SDS011;25422;48.286;8.484;2022-08-19T12:39:57;28.27;;;25.23;;
39738;SDS011;25422;48.286;8.484;2022-08-19T12:42:23;27.30;;;24.40;;
39738;SDS011;25422;48.286;8.484;2022-08-19T12:44:49;28.15;;;25.15;;
39738;SDS011;25422;48.286;8.484;2022-08-19T12:47:16;27.35;;;24.42;;
39738;SDS011;25422;48.286;8.484;2022-08-19T12:49:42;27.27;;;24.38;;
39738;SDS011;25422;48.286;8.484;2022-08-19T12:52:09;27.05;;;24.15;;
39738;SDS011;25422;48.286;8.484;2022-08-19T12:54:36;27.35;;;24.45;;
39738;SDS011;25422;48.286;8.484;2022-08-19T12:57:05;28.02;;;24.95;;
39738;SDS011;25422;48.286;8.484;2022-08-19T12:59:33;26.75;;;22.38;;
39738;SDS011;25422;48.286;8.484;2022-08-19T13:01:59;27.60;;;24.65;;
39738;SDS011;25422;48.286;8.484;2022-08-19T13:04:25;27.88;;;23.30;;
39738;SDS011;25422;48.286;8.484;2022-08-19T13:06:50;33.63;;;24.92;;
39738;SDS011;25422;48.286;8.484;2022-08-19T13:09:16;27.85;;;24.15;;
39738;SDS011;25422;48.286;8.484;2022-08-19T13:11:41;28.00;;;25.15;;
39738;SDS011;25422;48.286;8.484;2022-08-19T13:14:08;27.27;;;23.77;;
39738;SDS011;25422;48.286;8.484;2022-08-19T13:16:34;30.52;;;24.48;;
39738;SDS011;25422;48.286;8.484;2022-08-19T13:18:59;26.90;;;23.98;;
39738;SDS011;25422;48.286;8.484;2022-08-19T13:21:27;26.73;;;23.80;;
39738;SDS011;25422;48.286;8.484;2022-08-19T13:23:54;27.25;;;23.90;;
39738;SDS011;25422;48.286;8.484;2022-08-19T13:26:20;26.42;;;23.20;;
39738;SDS011;25422;48.286;8.484;2022-08-19T13:28:46;25.23;;;22.50;;
39738;SDS011;25422;48.286;8.484;2022-08-19T13:31:31;26.90;;;21.50;;
39738;SDS011;25422;48.286;8.484;2022-08-19T13:34:18;23.60;;;19.58;;
39738;SDS011;25422;48.286;8.484;2022-08-19T13:36:51;20.88;;;18.67;;
39738;SDS011;25422;48.286;8.484;2022-08-19T13:39:17;18.98;;;17.02;;
39738;SDS011;25422;48.286;8.484;2022-08-19T13:41:44;20.48;;;16.70;;
39738;SDS011;25422;48.286;8.484;2022-08-19T13:44:16;19.52;;;14.63;;
39738;SDS011;25422;48.286;8.484;2022-08-19T13:46:46;18.55;;;16.50;;
39738;SDS011;25422;48.286;8.484;2022-08-19T13:49:13;17.67;;;15.45;;
39738;SDS011;25422;48.286;8.484;2022-08-19T13:51:40;17.88;;;15.15;;
39738;SDS011;25422;48.286;8.484;2022-08-19T13:54:09;17.30;;;14.30;;
39738;SDS011;25422;48.286;8.484;2022-08-19T13:56:39;17.25;;;14.68;;
39738;SDS011;25422;48.286;8.484;2022-08-19T13:59:06;15.57;;;13.90;;
39738;SDS011;25422;48.286;8.484;2022-08-19T14:01:32;14.52;;;12.93;;
39738;SDS011;25422;48.286;8.484;2022-08-19T14:03:57;16.77;;;13.10;;
39738;SDS011;25422;48.286;8.484;2022-08-19T14:06:23;13.82;;;12.43;;
39738;SDS011;25422;48.286;8.484;2022-08-19T14:08:50;14.65;;;13.13;;
39738;SDS011;25422;48.286;8.484;2022-08-19T14:11:16;16.38;;;12.77;;
39738;SDS011;25422;48.286;8.484;2022-08-19T14:13:42;17.58;;;12.93;;
39738;SDS011;25422;48.286;8.484;2022-08-19T14:16:08;14.55;;;13.15;;
39738;SDS011;25422;48.286;8.484;2022-08-19T14:18:38;14.27;;;11.70;;
39738;SDS011;25422;48.286;8.484;2022-08-19T14:21:04;13.45;;;11.90;;
39738;SDS011;25422;48.286;8.484;2022-08-19T14:23:32;12.20;;;11.05;;
39738;SDS011;25422;48.286;8.484;2022-08-19T14:26:09;13.45;;;12.10;;
39738;SDS011;25422;48.286;8.484;2022-08-19T14:28:37;17.58;;;12.80;;
39738;SDS011;25422;48.286;8.484;2022-08-19T14:31:07;15.50;;;10.93;;
39738;SDS011;25422;48.286;8.484;2022-08-19T14:33:33;12.88;;;11.48;;
39738;SDS011;25422;48.286;8.484;2022-08-19T14:35:58;16.90;;;11.02;;
39738;SDS011;25422;48.286;8.484;2022-08-19T14:38:25;14.70;;;11.80;;
39738;SDS011;25422;48.286;8.484;2022-08-19T14:40:51;14.82;;;11.18;;
39738;SDS011;25422;48.286;8.484;2022-08-19T14:43:17;12.77;;;11.52;;
39738;SDS011;25422;48.286;8.484;2022-08-19T14:45:42;11.25;;;10.20;;